Time;durP1;ratioP1;P1;durP2;ratioP2;P2;SDS_P1;SDS_P2;PMS_P1;PMS_P2;Temp;Humidity;BMP_temperature;BMP_pressure;BME280_temperature;BME280_humidity;BME280_pressure;Samples;Min_cycle;Max_cycle;Signal;HPM_P1;HPM_P2
2023/09/23 00:01:37;;;;;;;1.43;0.80;;;;;;;11.53;100.00;97714.66;5052663;28;20311;-76
2023/09/23 00:04:03;;;;;;;2.33;0.63;;;;;;;11.57;100.00;97718.75;5052916;28;20204;-76
2023/09/23 00:06:30;;;;;;;2.00;0.60;;;;;;;11.66;100.00;97724.19;5052732;28;20230;-76
2023/09/23 00:09:00;;;;;;;0.50;0.50;;;;;;;11.71;100.00;97716.72;5052696;28;20251;-76
2023/09/23 00:11:26;;;;;;;1.00;0.70;;;;;;;11.77;100.00;97713.59;5052365;28;20714;-76
2023/09/23 00:13:53;;;;;;;1.23;0.83;;;;;;;11.77;100.00;97710.94;5052010;28;20473;-76
2023/09/23 00:16:21;;;;;;;0.80;0.77;;;;;;;11.77;100.00;97704.78;5052756;28;20232;-76
2023/09/23 00:18:47;;;;;;;1.77;0.70;;;;;;;11.75;100.00;97707.56;5052475;28;20313;-76
2023/09/23 00:21:14;;;;;;;2.03;0.70;;;;;;;11.82;100.00;97713.22;5052089;28;20224;-76
2023/09/23 00:23:44;;;;;;;1.80;0.63;;;;;;;11.85;100.00;97719.09;5052399;28;20693;-76
2023/09/23 00:26:17;;;;;;;1.43;0.60;;;;;;;11.86;100.00;97719.97;5052934;28;20201;-76
2023/09/23 00:28:43;;;;;;;0.77;0.60;;;;;;;11.91;100.00;97718.59;5052534;28;20212;-76
2023/09/23 00:31:11;;;;;;;0.60;0.50;;;;;;;11.98;100.00;97718.97;5052115;28;20242;-76
2023/09/23 00:33:39;;;;;;;1.07;0.80;;;;;;;11.99;100.00;97720.66;5052304;28;20583;-76
2023/09/23 00:36:07;;;;;;;0.77;0.60;;;;;;;11.94;100.00;97713.06;5052204;28;20654;-76
2023/09/23 00:38:34;;;;;;;0.80;0.53;;;;;;;11.94;100.00;97728.13;5052076;28;20305;-76
2023/09/23 00:41:00;;;;;;;0.40;0.40;;;;;;;11.90;100.00;97721.38;5052068;28;20685;-76
2023/09/23 00:43:28;;;;;;;0.80;0.70;;;;;;;11.91;100.00;97712.44;5051878;28;20698;-76
2023/09/23 00:45:55;;;;;;;1.07;0.67;;;;;;;11.86;100.00;97717.31;5051874;28;20204;-76
2023/09/23 00:48:23;;;;;;;0.50;0.50;;;;;;;11.80;100.00;97720.44;5051963;28;20204;-76
2023/09/23 00:50:51;;;;;;;0.87;0.60;;;;;;;11.74;100.00;97715.66;5051548;28;20262;-75
2023/09/23 00:53:18;;;;;;;1.57;0.57;;;;;;;11.70;100.00;97708.91;5051815;28;20258;-76
2023/09/23 00:55:52;;;;;;;1.07;0.60;;;;;;;11.63;100.00;97705.06;5051567;28;20286;-76
2023/09/23 00:58:26;;;;;;;0.70;0.70;;;;;;;11.57;100.00;97713.47;5051902;28;20303;-76
2023/09/23 01:00:54;;;;;;;0.60;0.60;;;;;;;11.54;100.00;97714.56;5051647;28;20318;-76
2023/09/23 01:03:21;;;;;;;0.90;0.60;;;;;;;11.53;100.00;97706.72;5051614;28;20250;-76
2023/09/23 01:06:00;;;;;;;0.97;0.60;;;;;;;11.55;100.00;97703.00;5051527;28;20205;-76
2023/09/23 01:08:27;;;;;;;0.57;0.50;;;;;;;11.51;100.00;97708.66;5051540;28;20219;-76
2023/09/23 01:10:53;;;;;;;0.70;0.60;;;;;;;11.46;100.00;97705.53;5051531;28;20232;-76
2023/09/23 01:13:23;;;;;;;1.20;0.60;;;;;;;11.44;100.00;97712.75;5051419;28;20212;-76
2023/09/23 01:15:51;;;;;;;0.87;0.70;;;;;;;11.45;100.00;97725.03;5051439;28;20330;-76
2023/09/23 01:18:20;;;;;;;0.80;0.60;;;;;;;11.43;100.00;97734.91;5051556;28;20586;-76
2023/09/23 01:20:49;;;;;;;0.40;0.40;;;;;;;11.40;100.00;97737.78;5051230;28;20238;-76
2023/09/23 01:23:18;;;;;;;0.97;0.77;;;;;;;11.40;100.00;97729.84;5051473;28;20210;-76
2023/09/23 01:25:44;;;;;;;0.70;0.60;;;;;;;11.37;100.00;97728.25;5050480;28;20218;-76
2023/09/23 01:28:12;;;;;;;1.23;0.60;;;;;;;11.36;100.00;97737.16;5051206;28;20208;-76
2023/09/23 01:30:39;;;;;;;0.87;0.40;;;;;;;11.32;100.00;97740.19;5051309;28;20306;-76
2023/09/23 01:33:07;;;;;;;0.70;0.50;;;;;;;11.24;100.00;97737.28;5050967;28;20204;-76
2023/09/23 01:35:34;;;;;;;1.33;0.50;;;;;;;11.20;100.00;97741.13;5051358;28;20231;-76
2023/09/23 01:38:02;;;;;;;1.13;0.70;;;;;;;11.20;100.00;97741.13;5051296;28;20218;-76
2023/09/23 01:40:31;;;;;;;0.83;0.60;;;;;;;11.12;100.00;97754.94;5051184;28;20219;-76
2023/09/23 01:42:58;;;;;;;2.40;0.60;;;;;;;11.11;100.00;97757.69;5050978;28;20282;-76
2023/09/23 01:45:26;;;;;;;0.50;0.50;;;;;;;11.07;100.00;97762.38;5050884;28;20204;-76
2023/09/23 01:47:52;;;;;;;1.00;0.80;;;;;;;11.03;100.00;97768.03;5051476;28;20208;-76
2023/09/23 01:50:20;;;;;;;1.80;0.60;;;;;;;11.03;100.00;97781.25;5051133;28;20204;-76
2023/09/23 01:52:47;;;;;;;0.60;0.60;;;;;;;11.00;100.00;97770.94;5050680;28;20219;-76
2023/09/23 01:55:16;;;;;;;0.80;0.70;;;;;;;10.90;100.00;97770.75;5050946;28;20212;-76
2023/09/23 01:57:44;;;;;;;1.07;0.70;;;;;;;10.78;100.00;97760.28;5051218;28;20215;-76
2023/09/23 02:00:17;;;;;;;0.57;0.57;;;;;;;10.69;100.00;97755.69;5050870;28;20212;-76
2023/09/23 02:02:44;;;;;;;0.80;0.70;;;;;;;10.67;100.00;97763.75;5051186;28;20235;-76
2023/09/23 02:05:10;;;;;;;0.70;0.70;;;;;;;10.65;100.00;97772.75;5051012;28;20227;-76
2023/09/23 02:07:38;;;;;;;1.10;1.00;;;;;;;10.60;100.00;97777.53;5050960;28;20219;-76
2023/09/23 02:10:05;;;;;;;0.87;0.60;;;;;;;10.58;100.00;97775.00;5050993;28;20212;-76
2023/09/23 02:12:32;;;;;;;0.60;0.60;;;;;;;10.63;100.00;97783.44;5050309;28;20228;-76
2023/09/23 02:14:59;;;;;;;0.60;0.60;;;;;;;10.63;100.00;97788.72;5050949;28;20205;-76
2023/09/23 02:17:26;;;;;;;0.63;0.63;;;;;;;10.61;100.00;97788.00;5050729;28;20235;-76
2023/09/23 02:19:53;;;;;;;0.57;0.57;;;;;;;10.53;100.00;97786.88;5050872;28;20266;-76
2023/09/23 02:22:20;;;;;;;0.70;0.70;;;;;;;10.48;100.00;97796.94;5050467;28;20291;-76
2023/09/23 02:24:47;;;;;;;2.40;0.60;;;;;;;10.50;100.00;97797.66;5050739;28;20303;-76
2023/09/23 02:27:14;;;;;;;0.83;0.67;;;;;;;10.46;100.00;97798.88;5051127;28;20557;-76
2023/09/23 02:29:41;;;;;;;0.50;0.50;;;;;;;10.39;100.00;97800.28;5050622;28;20733;-76
2023/09/23 02:32:08;;;;;;;0.73;0.67;;;;;;;10.36;100.00;97800.50;5050485;28;20256;-76
2023/09/23 02:34:36;;;;;;;0.70;0.60;;;;;;;10.35;100.00;97793.53;5050731;28;20210;-76
2023/09/23 02:37:04;;;;;;;0.70;0.70;;;;;;;10.27;100.00;97801.19;5052256;28;20231;-76
2023/09/23 02:39:31;;;;;;;0.60;0.60;;;;;;;10.26;100.00;97810.03;5054264;28;20208;-76
2023/09/23 02:41:59;;;;;;;0.80;0.60;;;;;;;10.18;100.00;97807.97;5053853;28;20232;-76
2023/09/23 02:44:29;;;;;;;2.33;0.70;;;;;;;10.17;100.00;97821.28;5054352;28;20588;-76
2023/09/23 02:46:56;;;;;;;0.60;0.60;;;;;;;10.13;100.00;97814.53;5054169;28;20215;-76
2023/09/23 02:49:24;;;;;;;1.20;0.80;;;;;;;10.09;100.00;97821.81;5054051;28;20211;-76
2023/09/23 02:51:50;;;;;;;1.50;0.60;;;;;;;10.11;100.00;97824.38;5053633;28;20235;-76
2023/09/23 02:54:18;;;;;;;1.40;0.80;;;;;;;10.17;100.00;97830.06;5053875;28;20214;-76
2023/09/23 02:56:45;;;;;;;0.80;0.80;;;;;;;10.19;100.00;97829.91;5054105;28;20226;-76
2023/09/23 02:59:13;;;;;;;0.93;0.70;;;;;;;10.16;100.00;97840.72;5054132;28;20208;-76
2023/09/23 03:01:45;;;;;;;0.80;0.80;;;;;;;10.10;100.00;97841.16;5053697;28;20733;-76
2023/09/23 03:04:16;;;;;;;1.33;0.70;;;;;;;10.00;100.00;97840.09;5053814;28;20216;-76
2023/09/23 03:06:49;;;;;;;0.70;0.70;;;;;;;9.98;100.00;97842.00;5054004;28;20819;-76
2023/09/23 03:09:19;;;;;;;0.90;0.70;;;;;;;9.95;100.00;97848.34;5053895;28;20765;-76
2023/09/23 03:11:49;;;;;;;0.80;0.57;;;;;;;10.01;100.00;97854.97;5053369;28;20705;-76
2023/09/23 03:14:18;;;;;;;1.90;0.57;;;;;;;9.94;100.00;97851.09;5053493;28;20211;-76
2023/09/23 03:16:49;;;;;;;1.77;0.70;;;;;;;9.88;100.00;97855.03;5053544;28;20241;-76
2023/09/23 03:19:22;;;;;;;2.30;0.60;;;;;;;9.93;100.00;97860.81;5053425;28;20740;-76
2023/09/23 03:21:50;;;;;;;0.93;0.87;;;;;;;9.88;100.00;97862.06;5053291;28;20231;-76
2023/09/23 03:24:17;;;;;;;0.77;0.60;;;;;;;9.83;100.00;97869.47;5053754;28;20219;-76
2023/09/23 03:26:46;;;;;;;0.60;0.53;;;;;;;9.80;100.00;97867.88;5053634;28;20654;-76
2023/09/23 03:29:13;;;;;;;2.03;1.17;;;;;;;9.84;100.00;97874.66;5053621;28;20215;-76
2023/09/23 03:31:40;;;;;;;3.07;0.97;;;;;;;9.84;100.00;97872.00;5052869;28;20235;-76
2023/09/23 03:34:07;;;;;;;0.63;0.63;;;;;;;9.88;100.00;97877.91;5053491;28;20236;-76
2023/09/23 03:36:34;;;;;;;0.60;0.60;;;;;;;9.83;100.00;97877.38;5053389;28;20271;-76
2023/09/23 03:39:02;;;;;;;0.77;0.77;;;;;;;9.83;100.00;97882.66;5053407;28;20573;-76
2023/09/23 03:41:28;;;;;;;1.87;0.80;;;;;;;9.78;100.00;97888.28;5052731;28;20292;-76
2023/09/23 03:43:54;;;;;;;0.87;0.70;;;;;;;9.81;100.00;97888.06;5053221;28;20206;-76
2023/09/23 03:46:21;;;;;;;0.50;0.50;;;;;;;9.80;100.00;97890.81;5053111;28;20216;-76
2023/09/23 03:48:48;;;;;;;0.57;0.57;;;;;;;9.77;100.00;97896.28;5052030;28;20679;-76
2023/09/23 03:51:14;;;;;;;0.67;0.67;;;;;;;9.70;100.00;97898.53;5052796;28;20286;-76
2023/09/23 03:53:41;;;;;;;1.27;0.70;;;;;;;9.68;100.00;97896.94;5053284;28;20217;-76
2023/09/23 03:56:10;;;;;;;0.60;0.60;;;;;;;9.66;100.00;97904.97;5052746;28;20234;-76
2023/09/23 03:58:38;;;;;;;1.40;0.70;;;;;;;9.57;100.00;97888.91;5052845;28;20211;-76
2023/09/23 04:01:09;;;;;;;1.07;0.87;;;;;;;9.51;100.00;97890.19;5052724;28;20236;-76
2023/09/23 04:03:36;;;;;;;1.03;0.90;;;;;;;9.47;100.00;97893.13;5052643;28;20246;-76
2023/09/23 04:06:05;;;;;;;0.90;0.90;;;;;;;9.47;100.00;97893.13;5052683;28;20204;-76
2023/09/23 04:08:32;;;;;;;1.00;0.77;;;;;;;9.44;100.00;97890.72;5052593;28;20337;-76
2023/09/23 04:11:02;;;;;;;1.00;0.77;;;;;;;9.41;100.00;97897.03;5052165;28;20226;-76
2023/09/23 04:13:30;;;;;;;1.33;0.80;;;;;;;9.44;100.00;97894.22;5052504;28;20670;-76
2023/09/23 04:16:01;;;;;;;1.13;0.83;;;;;;;9.43;100.00;97900.41;5052325;28;20211;-76
2023/09/23 04:18:27;;;;;;;0.80;0.80;;;;;;;9.43;100.00;97892.50;5052594;28;20212;-76
2023/09/23 04:20:54;;;;;;;1.80;1.00;;;;;;;9.44;100.00;97891.56;5052089;28;20227;-76
2023/09/23 04:23:21;;;;;;;1.40;0.93;;;;;;;9.39;100.00;97898.94;5052234;28;20215;-76
2023/09/23 04:25:49;;;;;;;0.80;0.80;;;;;;;9.39;100.00;97901.59;5052125;28;20211;-76
2023/09/23 04:28:15;;;;;;;0.70;0.70;;;;;;;9.40;100.00;97899.78;5052563;28;20211;-76
2023/09/23 04:30:43;;;;;;;1.00;0.90;;;;;;;9.37;100.00;97902.63;5052037;28;20675;-75
2023/09/23 04:33:11;;;;;;;3.43;1.17;;;;;;;9.40;100.00;97912.97;5052295;28;20219;-76
2023/09/23 04:35:38;;;;;;;2.63;0.83;;;;;;;9.37;100.00;97908.75;5052355;28;20743;-76
2023/09/23 04:38:05;;;;;;;1.50;1.00;;;;;;;9.44;100.00;97910.03;5051958;28;20738;-76
2023/09/23 04:40:31;;;;;;;1.20;0.80;;;;;;;9.43;100.00;97912.78;5051732;28;20678;-76
2023/09/23 04:42:58;;;;;;;0.83;0.83;;;;;;;9.47;100.00;97914.22;5052091;28;20218;-76
2023/09/23 04:45:24;;;;;;;1.73;0.87;;;;;;;9.46;100.00;97912.53;5052219;28;20208;-76
2023/09/23 04:47:52;;;;;;;1.13;0.90;;;;;;;9.44;100.00;97922.38;5051826;28;20307;-76
2023/09/23 04:50:19;;;;;;;2.43;1.00;;;;;;;9.45;100.00;97910.88;5051683;28;20211;-76
2023/09/23 04:52:46;;;;;;;1.73;0.97;;;;;;;9.40;100.00;97918.25;5051429;28;20315;-76
2023/09/23 04:55:13;;;;;;;1.10;0.90;;;;;;;9.40;100.00;97913.81;5052148;28;20224;-76
2023/09/23 04:57:39;;;;;;;2.37;1.00;;;;;;;9.44;100.00;97925.00;5051823;28;20236;-76
2023/09/23 05:00:09;;;;;;;0.87;0.87;;;;;;;9.47;100.00;97927.41;5051453;28;20565;-76
2023/09/23 05:02:36;;;;;;;1.10;1.00;;;;;;;9.47;100.00;97930.06;5051441;28;20228;-76
2023/09/23 05:05:05;;;;;;;0.80;0.80;;;;;;;9.49;100.00;97928.19;5051613;28;20314;-76
2023/09/23 05:07:31;;;;;;;2.07;0.80;;;;;;;9.50;100.00;97932.50;5051325;28;20214;-76
2023/09/23 05:09:58;;;;;;;1.43;1.33;;;;;;;9.50;100.00;97933.38;5051351;28;20215;-76
2023/09/23 05:12:24;;;;;;;2.30;0.90;;;;;;;9.50;100.00;97940.41;5051071;28;20230;-76
2023/09/23 05:14:51;;;;;;;0.70;0.70;;;;;;;9.49;100.00;97944.00;5051605;28;20209;-76
2023/09/23 05:17:18;;;;;;;1.40;0.90;;;;;;;9.56;100.00;97946.13;5051437;28;20263;-76
2023/09/23 05:19:46;;;;;;;1.50;0.97;;;;;;;9.62;100.00;97947.50;5051379;28;20239;-76
2023/09/23 05:22:14;;;;;;;1.77;0.73;;;;;;;9.59;100.00;97950.34;5050977;28;20230;-76
2023/09/23 05:24:41;;;;;;;0.80;0.80;;;;;;;9.65;100.00;97953.41;5051319;28;20236;-76
2023/09/23 05:27:08;;;;;;;1.10;1.00;;;;;;;9.63;100.00;97959.75;5051545;28;20263;-76
2023/09/23 05:29:34;;;;;;;0.93;0.83;;;;;;;9.67;100.00;97958.59;5051229;28;20654;-76
2023/09/23 05:32:01;;;;;;;1.17;1.00;;;;;;;9.73;100.00;97963.44;5050736;28;20247;-76
2023/09/23 05:34:28;;;;;;;2.00;1.00;;;;;;;9.77;100.00;97964.91;5051175;28;20213;-76
2023/09/23 05:36:54;;;;;;;1.90;0.90;;;;;;;9.83;100.00;97967.13;5051004;28;20237;-76
2023/09/23 05:39:22;;;;;;;1.00;0.90;;;;;;;9.94;100.00;97967.25;5051250;28;20211;-76
2023/09/23 05:41:49;;;;;;;1.03;0.83;;;;;;;9.99;100.00;97962.50;5051107;28;20251;-77
2023/09/23 05:44:17;;;;;;;1.60;0.90;;;;;;;10.02;100.00;97971.03;5051488;28;20211;-76
2023/09/23 05:46:44;;;;;;;1.97;1.00;;;;;;;10.08;100.00;97977.72;5050513;28;20213;-75
2023/09/23 05:49:12;;;;;;;0.70;0.70;;;;;;;10.11;100.00;97981.00;5051190;28;20269;-75
2023/09/23 05:51:38;;;;;;;1.90;0.73;;;;;;;10.18;100.00;97991.97;5050316;28;20285;-76
2023/09/23 05:54:05;;;;;;;0.90;0.80;;;;;;;10.18;100.00;97997.25;5069013;28;20214;-76
2023/09/23 05:56:33;;;;;;;0.80;0.80;;;;;;;10.25;100.00;97996.72;5075079;28;20218;-79
2023/09/23 05:58:59;;;;;;;1.63;0.80;;;;;;;10.26;100.00;97994.91;5074921;28;20218;-79
2023/09/23 06:01:26;;;;;;;1.63;0.80;;;;;;;10.38;100.00;98004.63;5073965;28;20229;-79
2023/09/23 06:03:53;;;;;;;1.10;0.90;;;;;;;10.40;100.00;98005.38;5074760;28;20636;-79
2023/09/23 06:06:20;;;;;;;1.20;0.93;;;;;;;10.46;100.00;98015.50;5073527;28;20211;-78
2023/09/23 06:08:47;;;;;;;0.83;0.80;;;;;;;10.60;100.00;98012.72;5074056;28;20225;-78
2023/09/23 06:11:14;;;;;;;0.80;0.77;;;;;;;10.70;100.00;98027.00;5073839;28;20276;-78
2023/09/23 06:13:43;;;;;;;1.40;0.90;;;;;;;10.75;100.00;98024.84;5077909;28;20237;-81
2023/09/23 06:16:10;;;;;;;1.70;0.80;;;;;;;10.86;100.00;98038.13;5076761;28;20219;-81
2023/09/23 06:18:36;;;;;;;1.13;0.80;;;;;;;10.88;100.00;98041.53;5076967;28;20287;-81
2023/09/23 06:21:04;;;;;;;0.93;0.77;;;;;;;10.89;100.00;98027.38;5076365;28;20231;-81
2023/09/23 06:23:32;;;;;;;0.60;0.60;;;;;;;11.04;100.00;98039.47;5076461;28;20301;-81
2023/09/23 06:26:02;;;;;;;1.60;0.80;;;;;;;11.08;100.00;98035.66;5077007;28;20237;-83
2023/09/23 06:28:29;;;;;;;0.87;0.73;;;;;;;11.26;100.00;98042.25;5077475;28;20242;-80
2023/09/23 06:30:57;;;;;;;0.70;0.70;;;;;;;11.32;100.00;98044.44;5076172;28;20793;-79
2023/09/23 06:33:23;;;;;;;0.90;0.80;;;;;;;11.37;100.00;98050.25;5076141;28;20761;-78
2023/09/23 06:35:50;;;;;;;1.50;0.70;;;;;;;11.41;100.00;98049.03;5076229;28;20215;-79
2023/09/23 06:38:17;;;;;;;3.60;0.80;;;;;;;11.55;100.00;98055.00;5076492;28;20227;-78
2023/09/23 06:40:43;;;;;;;1.07;0.90;;;;;;;11.66;100.00;98062.19;5076094;28;20226;-78
2023/09/23 06:43:10;;;;;;;1.97;1.07;;;;;;;11.71;100.00;98054.75;5075404;28;20215;-79
2023/09/23 06:45:36;;;;;;;1.13;0.80;;;;;;;11.80;100.00;98062.00;5075222;28;20211;-79
2023/09/23 06:48:05;;;;;;;1.03;0.90;;;;;;;11.90;100.00;98063.00;5076260;28;20211;-79
2023/09/23 06:50:32;;;;;;;2.03;0.90;;;;;;;12.02;100.00;98075.31;5075046;28;20247;-77
2023/09/23 06:52:58;;;;;;;1.37;0.90;;;;;;;12.11;100.00;98071.97;5074304;28;20207;-77
2023/09/23 06:55:25;;;;;;;1.17;0.90;;;;;;;12.22;100.00;98075.47;5074051;28;20207;-77
2023/09/23 06:57:51;;;;;;;0.77;0.70;;;;;;;12.34;100.00;98065.75;5073911;28;20231;-77
2023/09/23 07:00:18;;;;;;;1.07;0.83;;;;;;;12.51;100.00;98078.53;5074227;28;20211;-77
2023/09/23 07:02:44;;;;;;;1.27;0.70;;;;;;;12.65;100.00;98086.28;5073850;28;20229;-77
2023/09/23 07:05:12;;;;;;;1.00;0.93;;;;;;;12.72;100.00;98090.13;5074051;28;20207;-77
2023/09/23 07:07:39;;;;;;;1.33;0.80;;;;;;;12.87;100.00;98088.91;5073960;28;20596;-77
2023/09/23 07:10:06;;;;;;;2.60;0.70;;;;;;;13.00;100.00;98097.59;5075530;28;20219;-84
2023/09/23 07:12:33;;;;;;;1.10;1.00;;;;;;;13.17;100.00;98099.78;5073753;28;20240;-77
2023/09/23 07:14:59;;;;;;;2.23;0.83;;;;;;;13.31;100.00;98102.16;5074469;28;20208;-80
2023/09/23 07:17:26;;;;;;;0.83;0.73;;;;;;;13.43;100.00;98095.84;5075151;28;20339;-81
2023/09/23 07:19:53;;;;;;;0.90;0.80;;;;;;;13.61;100.00;98099.66;5075273;28;20618;-80
2023/09/23 07:22:21;;;;;;;1.58;0.80;;;;;;;13.72;100.00;98091.66;5073635;28;20457;-78
2023/09/23 07:24:47;;;;;;;1.80;0.57;;;;;;;13.79;100.00;98090.19;5075153;28;20575;-78
2023/09/23 07:27:14;;;;;;;1.07;0.73;;;;;;;13.93;100.00;98087.25;5077232;28;20207;-80
2023/09/23 07:29:40;;;;;;;1.33;0.80;;;;;;;13.99;100.00;98082.25;5077279;28;20444;-80
2023/09/23 07:32:07;;;;;;;0.97;0.60;;;;;;;14.18;100.00;98079.72;5075528;28;20253;-80
2023/09/23 07:34:33;;;;;;;0.60;0.60;;;;;;;14.21;100.00;98081.31;5075615;28;20221;-80
2023/09/23 07:37:00;;;;;;;0.70;0.60;;;;;;;14.28;100.00;98085.16;5075744;28;20233;-81
2023/09/23 07:39:28;;;;;;;1.20;0.73;;;;;;;14.36;100.00;98088.84;5076186;28;20832;-81
2023/09/23 07:41:55;;;;;;;0.93;0.70;;;;;;;14.42;100.00;98090.16;5075826;28;20280;-80
2023/09/23 07:44:21;;;;;;;0.63;0.63;;;;;;;14.56;100.00;98095.13;5077711;28;20212;-81
2023/09/23 07:46:47;;;;;;;0.80;0.60;;;;;;;14.59;100.00;98106.34;5078703;28;20217;-82
2023/09/23 07:49:14;;;;;;;2.40;0.70;;;;;;;14.66;100.00;98112.00;5079029;28;20234;-82
2023/09/23 07:51:40;;;;;;;1.63;0.53;;;;;;;14.79;99.85;98108.13;5077543;28;20238;-81
2023/09/23 07:54:07;;;;;;;1.73;0.60;;;;;;;14.93;99.02;98114.94;5074789;28;20843;-77
2023/09/23 07:56:35;;;;;;;1.00;0.60;;;;;;;14.95;96.89;98112.97;5074513;28;20210;-77
2023/09/23 07:59:01;;;;;;;0.70;0.70;;;;;;;14.93;97.83;98121.09;5074007;28;20231;-77
2023/09/23 08:01:29;;;;;;;1.43;0.80;;;;;;;14.92;95.52;98115.91;5074205;28;20237;-79
2023/09/23 08:03:55;;;;;;;0.50;0.50;;;;;;;14.97;93.21;98117.19;5073728;28;20210;-76
2023/09/23 08:06:22;;;;;;;1.43;0.67;;;;;;;14.99;90.93;98109.06;5073045;28;20207;-76
2023/09/23 08:08:49;;;;;;;0.77;0.70;;;;;;;14.95;89.95;98119.13;5072892;28;20218;-76
2023/09/23 08:11:15;;;;;;;1.97;0.80;;;;;;;14.97;89.43;98134.97;5073342;28;20234;-77
2023/09/23 08:13:43;;;;;;;0.67;0.57;;;;;;;14.90;84.48;98116.03;5073787;28;20266;-78
2023/09/23 08:16:09;;;;;;;1.20;0.70;;;;;;;14.90;88.94;98144.47;5074298;28;20203;-77
2023/09/23 08:18:36;;;;;;;2.60;0.60;;;;;;;14.93;86.10;98122.91;5072661;28;20230;-77
2023/09/23 08:21:03;;;;;;;1.10;0.50;;;;;;;14.90;86.67;98132.00;5072503;28;20238;-76
2023/09/23 08:23:29;;;;;;;0.60;0.60;;;;;;;14.86;85.79;98140.38;5072535;28;20215;-77
2023/09/23 08:25:56;;;;;;;0.60;0.60;;;;;;;14.87;85.90;98148.25;5073019;28;20225;-77
2023/09/23 08:28:23;;;;;;;0.70;0.70;;;;;;;14.95;84.91;98147.56;5074213;28;20214;-79
2023/09/23 08:30:52;;;;;;;1.10;0.70;;;;;;;15.02;86.33;98151.41;5077088;28;20313;-80
2023/09/23 08:33:18;;;;;;;1.80;0.70;;;;;;;15.11;87.95;98163.91;5074921;28;20215;-77
2023/09/23 08:35:47;;;;;;;1.03;0.60;;;;;;;15.14;89.10;98166.28;5076070;28;20548;-82
2023/09/23 08:38:14;;;;;;;1.33;1.10;;;;;;;15.18;87.95;98167.72;5077726;28;20233;-82
2023/09/23 08:40:41;;;;;;;0.70;0.60;;;;;;;15.31;86.65;98161.19;5078676;28;20719;-81
2023/09/23 08:43:07;;;;;;;1.30;0.70;;;;;;;15.32;84.27;98148.69;5078807;28;20214;-81
2023/09/23 08:45:40;;;;;;;2.40;0.60;;;;;;;15.39;85.14;98164.03;5077983;28;20222;-78
2023/09/23 08:48:09;;;;;;;0.70;0.70;;;;;;;15.36;84.28;98152.81;5082395;28;20183;-82
2023/09/23 08:50:37;;;;;;;1.13;0.80;;;;;;;15.40;82.58;98152.41;5090378;28;20299;-81
2023/09/23 08:53:06;;;;;;;2.13;0.90;;;;;;;15.50;83.35;98157.75;5089678;28;20218;-83
2023/09/23 08:55:34;;;;;;;0.83;0.70;;;;;;;15.57;83.32;98173.06;5089730;28;20213;-81
2023/09/23 08:58:02;;;;;;;2.30;0.70;;;;;;;15.60;82.34;98163.97;5088854;28;20249;-80
2023/09/23 09:00:30;;;;;;;2.00;0.60;;;;;;;15.61;81.36;98160.31;5083849;28;20231;-81
2023/09/23 09:02:57;;;;;;;2.83;0.70;;;;;;;15.76;80.34;98159.81;5083019;28;20215;-82
2023/09/23 09:05:25;;;;;;;2.63;1.00;;;;;;;15.88;79.50;98153.38;5082968;28;20221;-85
2023/09/23 09:07:52;;;;;;;1.60;0.70;;;;;;;15.86;78.82;98157.16;5082877;28;20214;-83
2023/09/23 09:10:18;;;;;;;0.90;0.60;;;;;;;15.83;80.44;98166.25;5080477;28;20665;-84
2023/09/23 09:12:45;;;;;;;1.70;0.80;;;;;;;15.95;77.93;98159.00;5079555;28;20231;-83
2023/09/23 09:15:12;;;;;;;1.27;0.80;;;;;;;16.02;77.82;98155.63;5079166;28;20696;-78
2023/09/23 09:17:39;;;;;;;1.83;0.90;;;;;;;16.04;76.87;98157.16;5081346;28;20211;-80
2023/09/23 09:20:08;;;;;;;1.73;0.80;;;;;;;16.04;75.26;98146.50;5082701;28;20220;-80
2023/09/23 09:22:36;;;;;;;0.70;0.60;;;;;;;16.06;76.80;98157.03;5081849;28;20231;-79
2023/09/23 09:25:03;;;;;;;1.40;0.80;;;;;;;16.03;75.56;98142.16;5081506;28;20210;-81
2023/09/23 09:27:30;;;;;;;1.43;0.90;;;;;;;16.10;76.94;98156.63;5081658;28;20424;-80
2023/09/23 09:29:57;;;;;;;2.10;0.80;;;;;;;16.22;75.44;98150.16;5082217;28;20207;-80
2023/09/23 09:32:30;;;;;;;2.17;0.80;;;;;;;16.27;74.53;98137.25;5081423;28;20622;-80
2023/09/23 09:35:00;;;;;;;0.87;0.63;;;;;;;16.34;74.05;98143.69;5081341;28;20609;-81
2023/09/23 09:37:28;;;;;;;0.93;0.80;;;;;;;16.36;73.72;98143.56;5081647;28;20242;-80
2023/09/23 09:39:57;;;;;;;1.00;0.70;;;;;;;16.42;74.51;98151.91;5080471;28;20218;-81
2023/09/23 09:42:28;;;;;;;1.20;0.63;;;;;;;16.51;73.67;98158.22;5080546;28;20223;-80
2023/09/23 09:44:56;;;;;;;2.30;0.80;;;;;;;16.48;71.60;98138.00;5081144;28;20208;-80
2023/09/23 09:47:23;;;;;;;1.77;0.87;;;;;;;16.50;73.11;98140.50;5078238;28;20210;-82
2023/09/23 09:49:52;;;;;;;1.93;0.90;;;;;;;16.53;72.85;98141.03;5076551;28;20207;-80
2023/09/23 09:52:22;;;;;;;1.43;0.80;;;;;;;16.63;67.21;98115.19;5075425;28;20281;-80
2023/09/23 09:54:52;;;;;;;1.70;0.70;;;;;;;16.68;68.34;98126.28;5075427;28;20215;-80
2023/09/23 09:57:22;;;;;;;1.83;0.60;;;;;;;16.67;70.86;98142.44;5075962;28;20670;-79
2023/09/23 09:59:49;;;;;;;1.63;0.67;;;;;;;16.75;68.17;98127.38;5075064;28;20235;-80
2023/09/23 10:02:15;;;;;;;0.60;0.60;;;;;;;17.00;67.23;98118.75;5073919;28;20234;-79
2023/09/23 10:04:46;;;;;;;1.57;0.80;;;;;;;17.11;68.54;98131.91;5076111;28;20211;-80
2023/09/23 10:07:12;;;;;;;2.30;0.60;;;;;;;17.14;64.24;98115.59;5076814;28;20218;-80
2023/09/23 10:09:53;;;;;;;0.60;0.60;;;;;;;17.21;66.23;98127.38;5075824;28;20207;-80
2023/09/23 10:12:26;;;;;;;1.03;0.60;;;;;;;17.42;61.80;98103.97;5076015;28;20300;-80
2023/09/23 10:14:54;;;;;;;0.67;0.60;;;;;;;17.43;63.80;98119.00;5076693;28;20642;-80
2023/09/23 10:17:30;;;;;;;1.77;0.90;;;;;;;17.56;64.05;98122.16;5076280;28;20212;-80
2023/09/23 10:19:57;;;;;;;1.90;0.70;;;;;;;17.60;64.25;98126.22;5080008;28;20231;-82
2023/09/23 10:22:23;;;;;;;1.23;0.73;;;;;;;17.63;63.62;98133.94;5081152;28;20322;-82
2023/09/23 10:25:00;;;;;;;1.60;0.87;;;;;;;17.79;60.04;98103.88;5081403;28;20249;-81
2023/09/23 10:27:28;;;;;;;0.90;0.70;;;;;;;17.86;61.18;98108.47;5083406;28;20211;-82
2023/09/23 10:29:55;;;;;;;2.70;0.87;;;;;;;17.93;61.91;98120.22;5080284;28;20208;-82
2023/09/23 10:32:21;;;;;;;1.40;0.70;;;;;;;17.84;60.85;98105.09;5082692;28;20242;-81
2023/09/23 10:34:49;;;;;;;0.70;0.60;;;;;;;17.86;61.13;98112.97;5082339;28;20716;-82
2023/09/23 10:37:25;;;;;;;1.43;0.63;;;;;;;17.92;59.92;98107.84;5082308;28;20210;-82
2023/09/23 10:39:51;;;;;;;0.60;0.60;;;;;;;18.00;58.91;98105.28;5082255;28;20234;-82
2023/09/23 10:42:18;;;;;;;0.90;0.60;;;;;;;18.08;59.37;98107.16;5080975;28;20227;-82
2023/09/23 10:44:48;;;;;;;0.87;0.60;;;;;;;17.91;59.77;98105.34;5080564;28;20230;-81
2023/09/23 10:47:15;;;;;;;3.03;0.60;;;;;;;17.67;60.04;98119.28;5078749;28;20211;-81
2023/09/23 10:49:42;;;;;;;1.00;0.60;;;;;;;17.50;60.72;98128.09;5080224;28;20203;-82
2023/09/23 10:52:09;;;;;;;0.90;0.70;;;;;;;17.62;62.88;98144.78;5079619;28;20234;-81
2023/09/23 10:54:37;;;;;;;1.33;0.60;;;;;;;17.77;62.57;98140.59;5079588;28;20204;-81
2023/09/23 10:57:03;;;;;;;0.80;0.70;;;;;;;18.00;60.67;98125.81;5078722;28;20363;-82
2023/09/23 10:59:30;;;;;;;0.87;0.70;;;;;;;18.13;59.95;98124.47;5082241;28;20241;-81
2023/09/23 11:01:58;;;;;;;1.30;0.70;;;;;;;18.20;60.98;98132.69;5079961;28;20231;-80
2023/09/23 11:04:24;;;;;;;1.80;0.70;;;;;;;18.27;61.42;98139.97;5080478;28;20207;-80
2023/09/23 11:06:51;;;;;;;1.27;0.60;;;;;;;18.29;59.35;98124.59;5082049;28;20207;-80
2023/09/23 11:09:20;;;;;;;1.70;0.63;;;;;;;18.41;55.21;98088.59;5082416;28;20494;-80
2023/09/23 11:11:47;;;;;;;1.97;0.60;;;;;;;18.27;56.80;98107.84;5082996;28;20352;-81
2023/09/23 11:14:14;;;;;;;1.43;1.00;;;;;;;18.11;57.29;98106.88;5083987;28;20398;-81
2023/09/23 11:16:42;;;;;;;0.90;0.60;;;;;;;18.07;58.36;98121.53;5082393;28;20211;-81
2023/09/23 11:19:10;;;;;;;1.90;0.70;;;;;;;18.12;55.38;98096.03;5082003;28;20235;-81
2023/09/23 11:21:44;;;;;;;1.67;0.70;;;;;;;18.15;56.78;98103.72;5080604;28;20285;-81
2023/09/23 11:24:10;;;;;;;0.90;0.70;;;;;;;18.01;55.93;98101.59;5082164;28;20238;-80
2023/09/23 11:26:39;;;;;;;1.83;0.53;;;;;;;17.97;57.18;98110.91;5081527;28;20208;-81
2023/09/23 11:29:06;;;;;;;1.13;0.90;;;;;;;17.73;57.83;98112.50;5082272;28;20229;-81
2023/09/23 11:31:32;;;;;;;2.23;0.83;;;;;;;17.67;59.40;98129.16;5082256;28;20227;-81